createdAt,value
2023-05-08T00:01:13.891Z,3.80
2023-05-08T00:03:41.848Z,3.47
2023-05-08T00:06:08.771Z,3.25
2023-05-08T00:08:35.277Z,3.53
2023-05-08T00:11:01.967Z,3.45
2023-05-08T00:13:29.002Z,3.63
2023-05-08T00:15:55.632Z,3.72
2023-05-08T00:18:22.164Z,4.63
2023-05-08T00:20:50.109Z,3.10
2023-05-08T00:23:16.643Z,3.90
2023-05-08T00:25:43.302Z,3.80
2023-05-08T00:28:09.786Z,3.50
2023-05-08T00:30:36.870Z,4.13
2023-05-08T00:33:03.544Z,3.65
2023-05-08T00:35:30.156Z,3.75
2023-05-08T00:37:58.573Z,3.60
2023-05-08T00:40:26.632Z,3.40
2023-05-08T00:42:54.281Z,3.40
2023-05-08T00:45:20.790Z,3.80
2023-05-08T00:47:47.653Z,3.22
2023-05-08T00:50:14.614Z,3.20
2023-05-08T00:52:41.458Z,3.65
2023-05-08T00:55:09.822Z,3.80
2023-05-08T00:57:36.813Z,3.72
2023-05-08T01:00:05.197Z,3.70
2023-05-08T01:02:32.338Z,3.75
2023-05-08T01:04:58.962Z,3.35
2023-05-08T01:07:25.674Z,3.50
2023-05-08T01:09:52.291Z,3.53
2023-05-08T01:12:26.293Z,4.03
2023-05-08T01:15:05.334Z,4.30
2023-05-08T01:17:42.951Z,3.55
2023-05-08T01:20:28.010Z,3.83
2023-05-08T01:23:23.999Z,4.10
2023-05-08T01:26:11.626Z,3.67
2023-05-08T01:29:00.289Z,3.95
2023-05-08T01:31:39.401Z,4.50
2023-05-08T01:34:11.889Z,4.07
2023-05-08T01:36:48.313Z,3.90
2023-05-08T01:39:18.850Z,3.83
2023-05-08T01:41:53.346Z,3.72
2023-05-08T01:44:24.588Z,3.67
2023-05-08T01:46:52.067Z,3.88
2023-05-08T01:49:25.949Z,3.97
2023-05-08T01:51:57.827Z,4.10
2023-05-08T01:54:28.699Z,4.22
2023-05-08T01:56:57.734Z,4.70
2023-05-08T01:59:26.236Z,4.15
2023-05-08T02:01:57.246Z,4.13
2023-05-08T02:04:26.058Z,4.45
2023-05-08T02:06:53.499Z,4.75
2023-05-08T02:09:22.128Z,3.90
2023-05-08T02:11:51.000Z,3.95
2023-05-08T02:14:19.805Z,5.05
2023-05-08T02:16:48.717Z,4.53
2023-05-08T02:19:16.865Z,4.75
2023-05-08T02:21:46.978Z,4.90
2023-05-08T02:24:15.292Z,4.32
2023-05-08T02:26:43.937Z,4.88
2023-05-08T02:29:10.894Z,4.32
2023-05-08T02:31:38.721Z,5.00
2023-05-08T02:34:08.280Z,4.97
2023-05-08T02:36:37.366Z,5.00
2023-05-08T02:39:07.582Z,5.05
2023-05-08T02:41:35.812Z,5.47
2023-05-08T02:44:02.417Z,5.30
2023-05-08T02:46:36.350Z,5.20
2023-05-08T02:49:08.607Z,5.65
2023-05-08T02:51:45.492Z,5.43
2023-05-08T02:54:21.443Z,6.05
2023-05-08T02:56:57.988Z,6.15
2023-05-08T02:59:30.029Z,5.85
2023-05-08T03:02:03.858Z,6.63
2023-05-08T03:04:34.624Z,6.57
2023-05-08T03:07:03.125Z,6.57
2023-05-08T03:09:38.680Z,7.25
2023-05-08T03:12:12.575Z,8.02
2023-05-08T03:14:42.947Z,7.75
2023-05-08T03:17:14.646Z,7.57
2023-05-08T03:19:45.107Z,7.38
2023-05-08T03:22:15.080Z,7.25
2023-05-08T03:24:44.002Z,7.60
2023-05-08T03:27:11.280Z,7.50
2023-05-08T03:29:39.312Z,6.97
2023-05-08T03:32:07.287Z,6.88
2023-05-08T03:34:35.717Z,6.68
2023-05-08T03:37:02.699Z,6.65
2023-05-08T03:39:29.552Z,6.60
2023-05-08T03:41:57.896Z,7.47
2023-05-08T03:44:25.909Z,7.00
2023-05-08T03:46:55.524Z,7.20
2023-05-08T03:49:25.153Z,7.10
2023-05-08T03:51:53.195Z,7.30
2023-05-08T03:54:19.914Z,7.38
2023-05-08T03:56:46.819Z,7.82
2023-05-08T03:59:21.739Z,7.35
2023-05-08T04:01:52.894Z,7.15
2023-05-08T04:04:27.757Z,8.03
2023-05-08T04:07:11.477Z,8.10
2023-05-08T04:09:55.131Z,7.82
2023-05-08T04:12:33.147Z,8.20
2023-05-08T04:15:05.881Z,8.70
2023-05-08T04:17:39.231Z,8.18
2023-05-08T04:20:10.857Z,8.07
2023-05-08T04:22:39.121Z,8.30
2023-05-08T04:25:09.057Z,8.35
2023-05-08T04:27:36.052Z,7.35
2023-05-08T04:30:05.168Z,7.68
2023-05-08T04:32:37.161Z,8.43
2023-05-08T04:35:06.547Z,8.77
2023-05-08T04:37:33.074Z,8.20
2023-05-08T04:40:02.897Z,8.32
2023-05-08T04:42:31.341Z,8.10
2023-05-08T04:44:59.629Z,7.65
2023-05-08T04:47:27.762Z,8.23
2023-05-08T04:49:54.493Z,7.97
2023-05-08T04:52:21.015Z,8.75
2023-05-08T04:54:47.596Z,8.55
2023-05-08T04:57:14.166Z,8.65
2023-05-08T04:59:40.893Z,8.10
2023-05-08T05:02:08.331Z,8.18
2023-05-08T05:04:37.229Z,8.05
2023-05-08T05:07:05.527Z,8.13
2023-05-08T05:09:32.729Z,9.10
2023-05-08T05:11:59.393Z,8.40
2023-05-08T05:14:26.036Z,7.82
2023-05-08T05:16:52.591Z,8.35
2023-05-08T05:19:19.170Z,8.38
2023-05-08T05:21:47.114Z,8.20
2023-05-08T05:24:13.838Z,7.93
2023-05-08T05:26:40.795Z,7.78
2023-05-08T05:29:07.951Z,8.57
2023-05-08T05:31:34.601Z,8.88
2023-05-08T05:34:01.260Z,7.93
2023-05-08T05:36:27.781Z,8.18
2023-05-08T05:38:55.773Z,7.75
2023-05-08T05:41:22.514Z,7.68
2023-05-08T05:43:49.112Z,8.30
2023-05-08T05:46:15.732Z,8.32
2023-05-08T05:48:42.448Z,8.38
2023-05-08T05:51:09.868Z,7.85
2023-05-08T05:53:36.695Z,8.85
2023-05-08T05:56:05.243Z,8.80
2023-05-08T05:58:32.610Z,8.57
2023-05-08T06:00:59.174Z,8.48
2023-05-08T06:03:25.959Z,8.23
2023-05-08T06:05:52.791Z,7.88
2023-05-08T06:08:19.577Z,7.85
2023-05-08T06:10:46.158Z,7.85
2023-05-08T06:13:14.227Z,7.75
2023-05-08T06:15:40.860Z,8.55
2023-05-08T06:18:07.455Z,7.55
2023-05-08T06:20:34.388Z,7.90
2023-05-08T06:23:01.066Z,8.48
2023-05-08T06:25:27.783Z,7.72
2023-05-08T06:27:54.318Z,8.02
2023-05-08T06:30:22.647Z,7.35
2023-05-08T06:32:49.286Z,7.60
2023-05-08T06:35:15.995Z,7.88
2023-05-08T06:37:42.576Z,8.35
2023-05-08T06:40:12.535Z,8.32
2023-05-08T06:42:39.779Z,8.05
2023-05-08T06:45:07.738Z,8.00
2023-05-08T06:47:35.707Z,7.70
2023-05-08T06:50:02.332Z,8.20
2023-05-08T06:52:29.043Z,7.88
2023-05-08T06:54:55.533Z,7.40
2023-05-08T06:57:22.097Z,7.22
2023-05-08T06:59:48.608Z,7.55
2023-05-08T07:02:15.252Z,7.32
2023-05-08T07:04:43.678Z,7.28
2023-05-08T07:07:10.382Z,7.60
2023-05-08T07:09:36.950Z,7.55
2023-05-08T07:12:03.879Z,7.90
2023-05-08T07:14:30.369Z,8.05
2023-05-08T07:16:56.955Z,8.18
2023-05-08T07:19:23.489Z,7.90
2023-05-08T07:21:51.476Z,7.45
2023-05-08T07:24:17.993Z,7.60
2023-05-08T07:26:44.532Z,7.22
2023-05-08T07:29:11.023Z,7.45
2023-05-08T07:31:39.384Z,7.93
2023-05-08T07:34:05.912Z,7.80
2023-05-08T07:36:32.459Z,8.45
2023-05-08T07:39:00.469Z,8.32
2023-05-08T07:41:27.106Z,8.10
2023-05-08T07:43:53.696Z,9.20
2023-05-08T07:46:20.703Z,7.78
2023-05-08T07:48:47.338Z,7.93
2023-05-08T07:51:14.578Z,7.72
2023-05-08T07:53:41.191Z,8.43
2023-05-08T07:56:09.204Z,8.60
2023-05-08T07:58:35.709Z,8.27
2023-05-08T08:01:02.450Z,8.18
2023-05-08T08:03:29.161Z,8.05
2023-05-08T08:05:55.859Z,8.45
2023-05-08T08:08:22.440Z,7.88
2023-05-08T08:10:49.791Z,7.40
2023-05-08T08:13:17.759Z,7.80
2023-05-08T08:15:44.350Z,8.13
2023-05-08T08:18:10.949Z,7.68
2023-05-08T08:20:37.705Z,7.50
2023-05-08T08:23:04.379Z,7.70
2023-05-08T08:25:30.981Z,8.15
2023-05-08T08:27:57.488Z,8.10
2023-05-08T08:30:25.459Z,7.57
2023-05-08T08:32:52.051Z,8.05
2023-05-08T08:35:18.905Z,8.18
2023-05-08T08:37:45.531Z,7.82
2023-05-08T08:40:12.488Z,8.27
2023-05-08T08:42:39.144Z,7.80
2023-05-08T08:45:07.092Z,7.82
2023-05-08T08:47:36.722Z,8.38
2023-05-08T08:50:04.272Z,7.93
2023-05-08T08:52:36.939Z,7.28
2023-05-08T08:55:07.405Z,7.95
2023-05-08T08:57:36.980Z,7.63
2023-05-08T09:00:04.927Z,7.07
2023-05-08T09:02:32.028Z,7.68
2023-05-08T09:05:00.695Z,7.50
2023-05-08T09:07:27.853Z,7.20
2023-05-08T09:09:54.795Z,7.90
2023-05-08T09:12:21.342Z,7.82
2023-05-08T09:14:47.938Z,7.63
2023-05-08T09:17:14.446Z,7.22
2023-05-08T09:19:42.222Z,7.85
2023-05-08T09:22:11.578Z,7.55
2023-05-08T09:24:57.872Z,8.25
2023-05-08T09:27:25.948Z,8.05
2023-05-08T09:29:59.968Z,7.60
2023-05-08T09:32:27.206Z,7.68
2023-05-08T09:34:53.743Z,7.38
2023-05-08T09:37:21.900Z,7.75
2023-05-08T09:39:48.420Z,7.80
2023-05-08T09:42:15.068Z,7.85
2023-05-08T09:44:45.443Z,8.00
2023-05-08T09:47:14.084Z,7.75
2023-05-08T09:49:55.769Z,7.38
2023-05-08T09:54:56.684Z,7.68
2023-05-08T09:57:23.311Z,7.75
2023-05-08T09:59:49.848Z,7.40
2023-05-08T10:02:16.726Z,7.80
2023-05-08T10:04:43.413Z,8.55
2023-05-08T10:07:09.997Z,7.47
2023-05-08T10:09:49.682Z,7.65
2023-05-08T10:12:17.130Z,7.93
2023-05-08T10:14:45.579Z,8.10
2023-05-08T10:17:15.329Z,8.23
2023-05-08T10:19:45.837Z,8.35
2023-05-08T10:22:15.523Z,7.15
2023-05-08T10:24:45.792Z,7.88
2023-05-08T10:27:19.232Z,7.85
2023-05-08T10:29:52.509Z,8.55
2023-05-08T10:32:20.177Z,7.93
2023-05-08T10:34:52.793Z,7.72
2023-05-08T10:37:20.102Z,8.38
2023-05-08T10:39:48.323Z,8.35
2023-05-08T10:42:15.001Z,8.38
2023-05-08T10:44:41.515Z,8.70
2023-05-08T10:47:14.653Z,8.40
2023-05-08T10:49:49.352Z,8.13
2023-05-08T10:52:20.874Z,8.40
2023-05-08T10:55:09.266Z,8.15
2023-05-08T10:57:35.898Z,8.35
2023-05-08T11:00:02.454Z,8.98
2023-05-08T11:02:30.485Z,9.40
2023-05-08T11:05:14.312Z,8.35
2023-05-08T11:07:53.672Z,8.55
2023-05-08T11:10:22.476Z,8.07
2023-05-08T11:12:49.981Z,7.95
2023-05-08T11:15:16.609Z,8.57
2023-05-08T11:17:53.326Z,7.43
2023-05-08T11:20:23.501Z,8.45
2023-05-08T11:22:50.576Z,7.88
2023-05-08T11:25:17.079Z,7.40
2023-05-08T11:28:18.810Z,8.07
2023-05-08T11:30:47.101Z,7.28
2023-05-08T11:33:17.780Z,7.40
2023-05-08T11:35:53.528Z,7.75
2023-05-08T11:38:25.737Z,7.40
2023-05-08T11:41:03.308Z,7.53
2023-05-08T11:44:09.060Z,7.70
2023-05-08T11:46:40.092Z,7.18
2023-05-08T11:49:10.955Z,7.07
2023-05-08T11:51:37.976Z,7.30
2023-05-08T11:54:05.158Z,7.25
2023-05-08T11:56:31.701Z,7.53
2023-05-08T11:59:04.787Z,7.40
2023-05-08T12:01:32.419Z,7.32
2023-05-08T12:04:04.824Z,6.75
2023-05-08T12:06:33.183Z,6.60
2023-05-08T12:09:00.185Z,7.43
2023-05-08T12:11:27.071Z,7.30
2023-05-08T12:13:54.787Z,7.43
2023-05-08T12:16:23.041Z,7.38
2023-05-08T12:18:50.717Z,7.00
2023-05-08T12:21:19.212Z,7.22
2023-05-08T12:23:45.775Z,7.68
2023-05-08T12:26:12.447Z,7.15
2023-05-08T12:28:39.321Z,6.97
2023-05-08T12:31:06.303Z,6.93
2023-05-08T12:33:33.878Z,5.95
2023-05-08T12:36:01.038Z,6.28
2023-05-08T12:38:29.292Z,6.57
2023-05-08T12:40:56.185Z,6.30
2023-05-08T12:43:31.669Z,6.93
2023-05-08T12:45:58.594Z,6.80
2023-05-08T12:48:25.171Z,6.90
2023-05-08T12:50:51.852Z,6.70
2023-05-08T12:53:19.839Z,7.05
2023-05-08T12:55:53.032Z,7.07
2023-05-08T12:58:20.405Z,6.43
2023-05-08T13:00:48.390Z,5.97
2023-05-08T13:03:23.260Z,6.85
2023-05-08T13:05:49.987Z,6.00
2023-05-08T13:08:16.814Z,6.75
2023-05-08T13:10:48.163Z,5.93
2023-05-08T13:13:18.185Z,6.70
2023-05-08T13:15:45.264Z,6.65
2023-05-08T13:18:12.339Z,6.70
2023-05-08T13:20:39.213Z,6.97
2023-05-08T13:23:06.030Z,6.35
2023-05-08T13:25:33.765Z,6.85
2023-05-08T13:28:00.285Z,6.75
2023-05-08T13:30:28.202Z,6.63
2023-05-08T13:32:55.068Z,7.13
2023-05-08T13:35:22.292Z,7.10
2023-05-08T13:37:48.889Z,6.20
2023-05-08T13:40:16.298Z,7.10
2023-05-08T13:42:43.400Z,7.05
2023-05-08T13:45:10.739Z,6.97
2023-05-08T13:47:38.954Z,7.32
2023-05-08T13:50:06.975Z,7.50
2023-05-08T13:52:33.491Z,6.63
2023-05-08T13:55:00.067Z,7.10
2023-05-08T13:57:26.694Z,6.82
2023-05-08T13:59:53.232Z,6.95
2023-05-08T14:02:20.056Z,6.50
2023-05-08T14:04:47.981Z,7.15
2023-05-08T14:07:14.474Z,6.22
2023-05-08T14:09:41.121Z,6.68
2023-05-08T14:12:07.706Z,6.35
2023-05-08T14:14:34.646Z,6.70
2023-05-08T14:17:01.448Z,6.30
2023-05-08T14:19:27.963Z,5.95
2023-05-08T14:21:55.819Z,6.47
2023-05-08T14:24:22.470Z,6.55
2023-05-08T14:26:49.044Z,6.00
2023-05-08T14:29:15.767Z,6.63
2023-05-08T14:31:42.690Z,6.97
2023-05-08T14:34:09.261Z,6.40
2023-05-08T14:36:35.795Z,6.40
2023-05-08T14:39:04.188Z,5.95
2023-05-08T14:41:31.454Z,5.40
2023-05-08T14:43:58.341Z,5.30
2023-05-08T14:46:24.999Z,6.13
2023-05-08T14:48:51.896Z,5.70
2023-05-08T14:51:18.443Z,5.50
2023-05-08T14:53:45.159Z,5.25
2023-05-08T14:56:13.646Z,5.22
2023-05-08T14:58:40.514Z,5.32
2023-05-08T15:01:07.207Z,5.35
2023-05-08T15:03:33.952Z,4.75
2023-05-08T15:06:00.857Z,4.00
2023-05-08T15:08:27.519Z,4.43
2023-05-08T15:10:54.036Z,4.70
2023-05-08T15:13:21.952Z,3.75
2023-05-08T15:15:48.910Z,4.30
2023-05-08T15:18:15.454Z,4.07
2023-05-08T15:20:42.001Z,4.43
2023-05-08T15:23:08.535Z,4.03
2023-05-08T15:25:35.068Z,3.95
2023-05-08T15:28:01.644Z,3.90
2023-05-08T15:30:29.516Z,3.70
2023-05-08T15:32:56.129Z,3.60
2023-05-08T15:35:22.969Z,3.50
2023-05-08T15:37:49.542Z,3.33
2023-05-08T15:40:16.247Z,3.53
2023-05-08T15:42:42.785Z,4.05
2023-05-08T15:45:10.038Z,3.20
2023-05-08T15:47:38.090Z,3.42
2023-05-08T15:50:05.447Z,3.50
2023-05-08T15:52:31.989Z,3.92
2023-05-08T15:54:58.552Z,3.55
2023-05-08T15:57:25.071Z,3.40
2023-05-08T15:59:52.135Z,3.72
2023-05-08T16:02:18.694Z,3.45
2023-05-08T16:04:46.930Z,3.78
2023-05-08T16:07:13.632Z,4.30
2023-05-08T16:09:40.130Z,3.33
2023-05-08T16:12:06.978Z,4.20
2023-05-08T16:14:33.556Z,3.88
2023-05-08T16:17:00.143Z,3.35
2023-05-08T16:19:26.942Z,3.47
2023-05-08T16:21:54.902Z,3.53
2023-05-08T16:24:21.515Z,3.35
2023-05-08T16:26:48.167Z,3.33
2023-05-08T16:29:14.954Z,3.75
2023-05-08T16:31:41.509Z,3.78
2023-05-08T16:34:08.047Z,3.80
2023-05-08T16:36:34.726Z,3.70
2023-05-08T16:39:02.617Z,3.90
2023-05-08T16:41:29.193Z,3.67
2023-05-08T16:43:55.723Z,4.10
2023-05-08T16:46:29.930Z,5.82
2023-05-08T16:48:57.258Z,4.47
2023-05-08T16:51:23.778Z,4.53
2023-05-08T16:53:50.358Z,3.70
2023-05-08T16:56:18.241Z,3.65
2023-05-08T16:58:44.854Z,3.80
2023-05-08T17:01:11.448Z,3.60
2023-05-08T17:03:38.194Z,3.50
2023-05-08T17:06:06.443Z,4.00
2023-05-08T17:08:33.156Z,3.75
2023-05-08T17:10:59.708Z,4.07
2023-05-08T17:13:27.829Z,3.70
2023-05-08T17:15:54.470Z,4.28
2023-05-08T17:18:21.160Z,3.97
2023-05-08T17:20:47.803Z,3.88
2023-05-08T17:23:14.456Z,3.38
2023-05-08T17:25:41.041Z,4.05
2023-05-08T17:28:07.740Z,4.43
2023-05-08T17:30:35.608Z,4.18
2023-05-08T17:33:02.222Z,4.00
2023-05-08T17:35:28.893Z,4.15
2023-05-08T17:37:55.526Z,4.35
2023-05-08T17:40:22.212Z,4.07
2023-05-08T17:42:48.854Z,4.00
2023-05-08T17:45:15.450Z,3.85
2023-05-08T17:47:43.454Z,3.85
2023-05-08T17:50:10.902Z,4.38
2023-05-08T17:52:37.680Z,3.58
2023-05-08T17:55:04.713Z,3.78
2023-05-08T17:57:31.345Z,4.25
2023-05-08T17:59:57.917Z,4.20
2023-05-08T18:02:24.796Z,5.72
2023-05-08T18:04:52.966Z,3.50
2023-05-08T18:07:19.641Z,4.22
2023-05-08T18:09:46.538Z,4.28
2023-05-08T18:12:13.214Z,3.85
2023-05-08T18:14:39.815Z,3.78
2023-05-08T18:17:06.592Z,4.50
2023-05-08T18:19:33.167Z,4.65
2023-05-08T18:22:01.287Z,4.38
2023-05-08T18:24:29.325Z,4.45
2023-05-08T18:26:55.939Z,4.43
2023-05-08T18:29:22.473Z,4.20
2023-05-08T18:31:49.191Z,4.18
2023-05-08T18:34:15.785Z,4.57
2023-05-08T18:36:42.457Z,4.25
2023-05-08T18:39:10.349Z,4.30
2023-05-08T18:41:36.909Z,4.82
2023-05-08T18:44:03.422Z,4.45
2023-05-08T18:46:30.635Z,4.35
2023-05-08T18:48:57.204Z,4.68
2023-05-08T18:51:23.770Z,4.47
2023-05-08T18:53:50.292Z,4.97
2023-05-08T18:56:18.233Z,4.57
2023-05-08T18:58:44.762Z,4.30
2023-05-08T19:01:11.383Z,4.63
2023-05-08T19:03:38.044Z,4.30
2023-05-08T19:06:05.331Z,4.05
2023-05-08T19:08:31.846Z,4.10
2023-05-08T19:10:58.474Z,4.47
2023-05-08T19:13:26.639Z,4.60
2023-05-08T19:15:53.401Z,4.35
2023-05-08T19:18:19.983Z,4.50
2023-05-08T19:20:46.545Z,4.53
2023-05-08T19:23:13.066Z,4.60
2023-05-08T19:25:39.698Z,4.65
2023-05-08T19:28:06.203Z,4.82
2023-05-08T19:30:34.165Z,4.65
2023-05-08T19:33:00.679Z,4.80
2023-05-08T19:35:27.332Z,5.05
2023-05-08T19:37:53.987Z,5.07
2023-05-08T19:40:20.645Z,5.10
2023-05-08T19:42:47.157Z,4.75
2023-05-08T19:45:14.191Z,4.80
2023-05-08T19:47:42.257Z,4.93
2023-05-08T19:50:09.120Z,5.22
2023-05-08T19:52:35.663Z,5.28
2023-05-08T19:55:02.270Z,5.40
2023-05-08T19:57:29.040Z,6.15
2023-05-08T19:59:55.588Z,5.38
2023-05-08T20:02:22.193Z,5.07
2023-05-08T20:05:14.360Z,5.22
2023-05-08T20:07:36.906Z,5.28
2023-05-08T20:10:03.798Z,5.70
2023-05-08T20:12:30.466Z,4.97
2023-05-08T20:14:57.029Z,5.00
2023-05-08T20:17:23.820Z,4.40
2023-05-08T20:19:51.829Z,4.50
2023-05-08T20:22:18.620Z,6.80
2023-05-08T20:24:45.135Z,4.85
2023-05-08T20:27:11.783Z,5.38
2023-05-08T20:29:38.413Z,4.90
2023-05-08T20:32:05.266Z,5.47
2023-05-08T20:34:31.816Z,5.13
2023-05-08T20:36:59.924Z,5.65
2023-05-08T20:39:26.992Z,5.93
2023-05-08T20:41:53.709Z,5.32
2023-05-08T20:44:20.360Z,6.07
2023-05-08T20:46:46.909Z,6.28
2023-05-08T20:49:13.464Z,5.07
2023-05-08T20:51:40.071Z,5.93
2023-05-08T20:54:07.964Z,5.60
2023-05-08T20:56:34.540Z,5.78
2023-05-08T20:59:01.231Z,5.60
2023-05-08T21:01:28.022Z,6.13
2023-05-08T21:03:54.571Z,6.00
2023-05-08T21:06:21.218Z,5.72
2023-05-08T21:08:47.719Z,5.55
2023-05-08T21:11:15.716Z,5.78
2023-05-08T21:13:42.424Z,6.05
2023-05-08T21:16:09.098Z,6.00
2023-05-08T21:18:35.765Z,5.85
2023-05-08T21:21:02.495Z,5.55
2023-05-08T21:23:29.666Z,5.03
2023-05-08T21:25:56.259Z,5.20
2023-05-08T21:28:24.156Z,5.80
2023-05-08T21:30:50.725Z,4.97
2023-05-08T21:33:18.051Z,5.65
2023-05-08T21:35:44.652Z,5.50
2023-05-08T21:38:11.204Z,5.60
2023-05-08T21:40:37.940Z,6.18
2023-05-08T21:43:04.478Z,5.95
2023-05-08T21:45:32.919Z,5.78
2023-05-08T21:48:00.392Z,6.45
2023-05-08T21:50:27.295Z,6.85
2023-05-08T21:52:54.210Z,6.80
2023-05-08T21:55:21.420Z,6.38
2023-05-08T21:57:48.279Z,6.07
2023-05-08T22:00:15.810Z,6.60
2023-05-08T22:02:49.814Z,6.40
2023-05-08T22:05:16.764Z,7.10
2023-05-08T22:07:43.384Z,6.15
2023-05-08T22:10:10.836Z,5.72
2023-05-08T22:12:37.357Z,6.10
2023-05-08T22:15:09.521Z,6.65
2023-05-08T22:17:41.708Z,6.45
2023-05-08T22:20:11.909Z,6.03
2023-05-08T22:22:38.509Z,6.70
2023-05-08T22:25:05.890Z,6.40
2023-05-08T22:27:32.538Z,6.80
2023-05-08T22:29:59.043Z,7.22
2023-05-08T22:32:25.704Z,7.43
2023-05-08T22:34:52.206Z,7.03
2023-05-08T22:37:20.213Z,6.72
2023-05-08T22:39:46.741Z,6.88
2023-05-08T22:42:13.584Z,6.88
2023-05-08T22:44:40.584Z,6.50
2023-05-08T22:47:07.353Z,6.50
2023-05-08T22:49:33.945Z,6.82
2023-05-08T22:52:00.637Z,7.38
2023-05-08T22:54:28.576Z,7.15
2023-05-08T22:56:55.304Z,7.05
2023-05-08T22:59:21.852Z,6.43
2023-05-08T23:01:48.492Z,6.65
2023-05-08T23:04:15.037Z,7.22
2023-05-08T23:06:41.645Z,6.80
2023-05-08T23:09:08.264Z,7.13
2023-05-08T23:11:36.216Z,7.00
2023-05-08T23:14:02.809Z,7.32
2023-05-08T23:16:29.430Z,7.45
2023-05-08T23:18:55.980Z,7.82
2023-05-08T23:21:22.697Z,8.13
2023-05-08T23:23:49.248Z,7.10
2023-05-08T23:26:15.783Z,7.07
2023-05-08T23:28:43.696Z,6.13
2023-05-08T23:31:10.433Z,6.55
2023-05-08T23:33:37.243Z,6.68
2023-05-08T23:36:04.268Z,6.15
2023-05-08T23:38:30.803Z,5.88
2023-05-08T23:40:57.419Z,6.25
2023-05-08T23:43:24.013Z,6.25
2023-05-08T23:45:52.134Z,6.15
2023-05-08T23:48:18.639Z,7.03
2023-05-08T23:50:45.275Z,6.47
2023-05-08T23:53:11.918Z,5.75
2023-05-08T23:55:38.805Z,6.07
2023-05-08T23:58:05.313Z,5.80
